Aviation Digital Data Service (ADDS)

Output produced by METARs form (1953 UTC 23 January 2019)
found at http://www.aviationweather.gov/metar/data/
 
METAR text: FCPP 231900Z 19004KT 9999 SCT010 26/24 Q1010 NOSIG
Conditions at: FCPP (POINTE-NOIRE , CG) observed 1900 UTC 23 January 2019
Temperature: 26.0°C (79°F)
Dewpoint: 24.0°C (75°F) [RH = 89%]
Pressure (altimeter): 29.82 inches Hg (1010.0 mb)
Winds: from the S (190 degrees) at 5 MPH (4 knots; 2.1 m/s)
Visibility: 6 or more miles (10+ km)
Ceiling: at least 12,000 feet AGL
Clouds: scattered clouds at 1000 feet AGL
Weather: no significant weather observed at this time

METAR text: FCPP 231800Z 20006KT 9999 SCT010 27/24 Q1010 NOSIG
Conditions at: FCPP (POINTE-NOIRE , CG) observed 1800 UTC 23 January 2019
Temperature: 27.0°C (81°F)
Dewpoint: 24.0°C (75°F) [RH = 84%]
Pressure (altimeter): 29.82 inches Hg (1010.0 mb)
Winds: from the SSW (200 degrees) at 7 MPH (6 knots; 3.1 m/s)
Visibility: 6 or more miles (10+ km)
Ceiling: at least 12,000 feet AGL
Clouds: scattered clouds at 1000 feet AGL
Weather: no significant weather observed at this time

METAR text: FCPP 231700Z 18005KT 150V210 9999 SCT010 27/25 Q1009 NOSIG
Conditions at: FCPP (POINTE-NOIRE , CG) observed 1700 UTC 23 January 2019
Temperature: 27.0°C (81°F)
Dewpoint: 25.0°C (77°F) [RH = 89%]
Pressure (altimeter): 29.79 inches Hg (1009.0 mb)
Winds: from the S (180 degrees) at 6 MPH (5 knots; 2.6 m/s)
Visibility: 6 or more miles (10+ km)
Ceiling: at least 12,000 feet AGL
Clouds: scattered clouds at 1000 feet AGL
Weather: no significant weather observed at this time

METAR text: FCPP 231600Z 21007KT 180V240 9999 SCT013 FEW030CB 28/25 Q1009 NOSIG
Conditions at: FCPP (POINTE-NOIRE , CG) observed 1600 UTC 23 January 2019
Temperature: 28.0°C (82°F)
Dewpoint: 25.0°C (77°F) [RH = 84%]
Pressure (altimeter): 29.79 inches Hg (1009.0 mb)
Winds: from the SSW (210 degrees) at 8 MPH (7 knots; 3.6 m/s)
Visibility: 6 or more miles (10+ km)
Ceiling: at least 12,000 feet AGL
Clouds: scattered clouds at 1300 feet AGL
few clouds at 3000 feet AGL
Weather: no significant weather observed at this time

METAR text: FCPP 231500Z 21008KT 170V240 9999 SCT015 FEW030CB 29/25 Q1009 NOSIG
Conditions at: FCPP (POINTE-NOIRE , CG) observed 1500 UTC 23 January 2019
Temperature: 29.0°C (84°F)
Dewpoint: 25.0°C (77°F) [RH = 79%]
Pressure (altimeter): 29.79 inches Hg (1009.0 mb)
Winds: from the SSW (210 degrees) at 9 MPH (8 knots; 4.1 m/s)
Visibility: 6 or more miles (10+ km)
Ceiling: at least 12,000 feet AGL
Clouds: scattered clouds at 1500 feet AGL
few clouds at 3000 feet AGL
Weather: no significant weather observed at this time

METAR text: FCPP 231400Z 19009KT 160V230 9999 SCT015 FEW030CB 30/25 Q1009 NOSIG
Conditions at: FCPP (POINTE-NOIRE , CG) observed 1400 UTC 23 January 2019
Temperature: 30.0°C (86°F)
Dewpoint: 25.0°C (77°F) [RH = 75%]
Pressure (altimeter): 29.79 inches Hg (1009.0 mb)
Winds: from the S (190 degrees) at 10 MPH (9 knots; 4.6 m/s)
Visibility: 6 or more miles (10+ km)
Ceiling: at least 12,000 feet AGL
Clouds: scattered clouds at 1500 feet AGL
few clouds at 3000 feet AGL
Weather: no significant weather observed at this time

METAR text: FCPP 231300Z 20011KT 9999 SCT013 BKN023 FEW030CB 29/26 Q1010 TEMPO BKN013 BKN023 FEW030CB
Conditions at: FCPP (POINTE-NOIRE , CG) observed 1300 UTC 23 January 2019
Temperature: 29.0°C (84°F)
Dewpoint: 26.0°C (79°F) [RH = 84%]
Pressure (altimeter): 29.82 inches Hg (1010.0 mb)
Winds: from the SSW (200 degrees) at 13 MPH (11 knots; 5.7 m/s)
Visibility: 6 or more miles (10+ km)
Ceiling: 2300 feet AGL
Clouds: scattered clouds at 1300 feet AGL
broken clouds at 2300 feet AGL
few clouds at 3000 feet AGL
Weather: no significant weather observed at this time

METAR text: FCPP 231200Z 19010KT 9999 SCT013 BKN025 FEW030CB 28/25 Q1012 NOSIG
Conditions at: FCPP (POINTE-NOIRE , CG) observed 1200 UTC 23 January 2019
Temperature: 28.0°C (82°F)
Dewpoint: 25.0°C (77°F) [RH = 84%]
Pressure (altimeter): 29.88 inches Hg (1012.0 mb)
Winds: from the S (190 degrees) at 12 MPH (10 knots; 5.1 m/s)
Visibility: 6 or more miles (10+ km)
Ceiling: 2500 feet AGL
Clouds: scattered clouds at 1300 feet AGL
broken clouds at 2500 feet AGL
few clouds at 3000 feet AGL
Weather: no significant weather observed at this time

METAR text: FCPP 231100Z 17010KT 9999 SCT013 BKN025 FEW030CB 28/25 Q1012 NOSIG
Conditions at: FCPP (POINTE-NOIRE , CG) observed 1100 UTC 23 January 2019
Temperature: 28.0°C (82°F)
Dewpoint: 25.0°C (77°F) [RH = 84%]
Pressure (altimeter): 29.88 inches Hg (1012.0 mb)
Winds: from the S (170 degrees) at 12 MPH (10 knots; 5.1 m/s)
Visibility: 6 or more miles (10+ km)
Ceiling: 2500 feet AGL
Clouds: scattered clouds at 1300 feet AGL
broken clouds at 2500 feet AGL
few clouds at 3000 feet AGL
Weather: no significant weather observed at this time

METAR text: FCPP 231000Z 19010KT 9999 SCT013 SCT023 FEW030CB 28/25 Q1013 NOSIG
Conditions at: FCPP (POINTE-NOIRE , CG) observed 1000 UTC 23 January 2019
Temperature: 28.0°C (82°F)
Dewpoint: 25.0°C (77°F) [RH = 84%]
Pressure (altimeter): 29.91 inches Hg (1013.0 mb)
Winds: from the S (190 degrees) at 12 MPH (10 knots; 5.1 m/s)
Visibility: 6 or more miles (10+ km)
Ceiling: at least 12,000 feet AGL
Clouds: scattered clouds at 1300 feet AGL
scattered clouds at 2300 feet AGL
few clouds at 3000 feet AGL
Weather: no significant weather observed at this time

METAR text: FCPP 230900Z 18003KT 140V210 9999 -RA FEW013 SCT023 FEW030CB 25/25 Q1014 NOSIG
Conditions at: FCPP (POINTE-NOIRE , CG) observed 0900 UTC 23 January 2019
Temperature: 25.0°C (77°F)
Dewpoint: 25.0°C (77°F) [RH = 100%]
Pressure (altimeter): 29.94 inches Hg (1014.0 mb)
Winds: from the S (180 degrees) at 3 MPH (3 knots; 1.5 m/s)
Visibility: 6 or more miles (10+ km)
Ceiling: at least 12,000 feet AGL
Clouds: few clouds at 1300 feet AGL
scattered clouds at 2300 feet AGL
few clouds at 3000 feet AGL
Weather: -RA  (light rain)

METAR text: FCPP 230800Z 14006KT 4500 RA SCT010 SCT023 FEW030CB 24/24 Q1013 BECMG 6000 -RA
Conditions at: FCPP (POINTE-NOIRE , CG) observed 0800 UTC 23 January 2019
Temperature: 24.0°C (75°F)
Dewpoint: 24.0°C (75°F) [RH = 100%]
Pressure (altimeter): 29.91 inches Hg (1013.0 mb)
Winds: from the SE (140 degrees) at 7 MPH (6 knots; 3.1 m/s)
Visibility: 2.80 miles (4.51 km)
Ceiling: at least 12,000 feet AGL
Clouds: scattered clouds at 1000 feet AGL
scattered clouds at 2300 feet AGL
few clouds at 3000 feet AGL
Weather: RA  (moderate rain)

METAR text: FCPP 230700Z 19014KT 2000 +RA SCT011 SCT018 FEW030CB 23/22 Q1013 TEMPO 0800 +RA
Conditions at: FCPP (POINTE-NOIRE , CG) observed 0700 UTC 23 January 2019
Temperature: 23.0°C (73°F)
Dewpoint: 22.0°C (72°F) [RH = 94%]
Pressure (altimeter): 29.91 inches Hg (1013.0 mb)
Winds: from the S (190 degrees) at 16 MPH (14 knots; 7.2 m/s)
Visibility: 1.24 miles (2.00 km)
Ceiling: at least 12,000 feet AGL
Clouds: scattered clouds at 1100 feet AGL
scattered clouds at 1800 feet AGL
few clouds at 3000 feet AGL
Weather: +RA  (heavy rain)

METAR text: FCPP 230600Z VRB02KT 9999 SCT009 SCT023 26/26 Q1012 NOSIG
Conditions at: FCPP (POINTE-NOIRE , CG) observed 0600 UTC 23 January 2019
Temperature: 26.0°C (79°F)
Dewpoint: 26.0°C (79°F) [RH = 100%]
Pressure (altimeter): 29.88 inches Hg (1012.0 mb)
Winds: variable direction winds at 2 MPH (2 knots; 1.0 m/s)
Visibility: 6 or more miles (10+ km)
Ceiling: at least 12,000 feet AGL
Clouds: scattered clouds at 900 feet AGL
scattered clouds at 2300 feet AGL
Weather: no significant weather observed at this time

METAR text: FCPP 230500Z VRB03KT 8000 FEW010 SCT023 25/25 Q1011 NOSIG
Conditions at: FCPP (POINTE-NOIRE , CG) observed 0500 UTC 23 January 2019
Temperature: 25.0°C (77°F)
Dewpoint: 25.0°C (77°F) [RH = 100%]
Pressure (altimeter): 29.85 inches Hg (1011.0 mb)
Winds: variable direction winds at 3 MPH (3 knots; 1.5 m/s)
Visibility: 5 miles ( 8 km)
Ceiling: at least 12,000 feet AGL
Clouds: few clouds at 1000 feet AGL
scattered clouds at 2300 feet AGL
Weather: no significant weather observed at this time

METAR text: FCPP 230400Z VRB02KT 7000 -RA FEW010 SCT023 25/25 Q1011 NOSIG
Conditions at: FCPP (POINTE-NOIRE , CG) observed 0400 UTC 23 January 2019
Temperature: 25.0°C (77°F)
Dewpoint: 25.0°C (77°F) [RH = 100%]
Pressure (altimeter): 29.85 inches Hg (1011.0 mb)
Winds: variable direction winds at 2 MPH (2 knots; 1.0 m/s)
Visibility: 4 miles ( 7 km)
Ceiling: at least 12,000 feet AGL
Clouds: few clouds at 1000 feet AGL
scattered clouds at 2300 feet AGL
Weather: -RA  (light rain)

METAR text: FCPP 230300Z VRB02KT 7000 -RA FEW010 BKN023 26/25 Q1011 NOSIG
Conditions at: FCPP (POINTE-NOIRE , CG) observed 0300 UTC 23 January 2019
Temperature: 26.0°C (79°F)
Dewpoint: 25.0°C (77°F) [RH = 94%]
Pressure (altimeter): 29.85 inches Hg (1011.0 mb)
Winds: variable direction winds at 2 MPH (2 knots; 1.0 m/s)
Visibility: 4 miles ( 7 km)
Ceiling: 2300 feet AGL
Clouds: few clouds at 1000 feet AGL
broken clouds at 2300 feet AGL
Weather: -RA  (light rain)

METAR text: FCPP 230200Z 07004KT 6000 -RA FEW010 BKN023 26/26 Q1011 NOSIG
Conditions at: FCPP (POINTE-NOIRE , CG) observed 0200 UTC 23 January 2019
Temperature: 26.0°C (79°F)
Dewpoint: 26.0°C (79°F) [RH = 100%]
Pressure (altimeter): 29.85 inches Hg (1011.0 mb)
Winds: from the ENE (70 degrees) at 5 MPH (4 knots; 2.1 m/s)
Visibility: 4 miles ( 6 km)
Ceiling: 2300 feet AGL
Clouds: few clouds at 1000 feet AGL
broken clouds at 2300 feet AGL
Weather: -RA  (light rain)

METAR text: FCPP 230100Z 07003KT 8000 -RA SCT011 SCT021 26/26 Q1011 NOSIG
Conditions at: FCPP (POINTE-NOIRE , CG) observed 0100 UTC 23 January 2019
Temperature: 26.0°C (79°F)
Dewpoint: 26.0°C (79°F) [RH = 100%]
Pressure (altimeter): 29.85 inches Hg (1011.0 mb)
Winds: from the ENE (70 degrees) at 3 MPH (3 knots; 1.5 m/s)
Visibility: 5 miles ( 8 km)
Ceiling: at least 12,000 feet AGL
Clouds: scattered clouds at 1100 feet AGL
scattered clouds at 2100 feet AGL
Weather: -RA  (light rain)

METAR text: FCPP 230000Z 06002KT 8000 -RA SCT011 SCT021 27/26 Q1012 NOSIG
Conditions at: FCPP (POINTE-NOIRE , CG) observed 0000 UTC 23 January 2019
Temperature: 27.0°C (81°F)
Dewpoint: 26.0°C (79°F) [RH = 94%]
Pressure (altimeter): 29.88 inches Hg (1012.0 mb)
Winds: from the ENE (60 degrees) at 2 MPH (2 knots; 1.0 m/s)
Visibility: 5 miles ( 8 km)
Ceiling: at least 12,000 feet AGL
Clouds: scattered clouds at 1100 feet AGL
scattered clouds at 2100 feet AGL
Weather: -RA  (light rain)

METAR text: FCPP 222300Z VRB03KT 8000 -RA SCT010 27/26 Q1012 NOSIG
Conditions at: FCPP (POINTE-NOIRE , CG) observed 2300 UTC 22 January 2019
Temperature: 27.0°C (81°F)
Dewpoint: 26.0°C (79°F) [RH = 94%]
Pressure (altimeter): 29.88 inches Hg (1012.0 mb)
Winds: variable direction winds at 3 MPH (3 knots; 1.5 m/s)
Visibility: 5 miles ( 8 km)
Ceiling: at least 12,000 feet AGL
Clouds: scattered clouds at 1000 feet AGL
Weather: -RA  (light rain)

METAR text: FCPP 222200Z 21005KT 8000 FEW010 FEW030CB 28/25 Q1012 NOSIG
Conditions at: FCPP (POINTE-NOIRE , CG) observed 2200 UTC 22 January 2019
Temperature: 28.0°C (82°F)
Dewpoint: 25.0°C (77°F) [RH = 84%]
Pressure (altimeter): 29.88 inches Hg (1012.0 mb)
Winds: from the SSW (210 degrees) at 6 MPH (5 knots; 2.6 m/s)
Visibility: 5 miles ( 8 km)
Ceiling: at least 12,000 feet AGL
Clouds: few clouds at 1000 feet AGL
few clouds at 3000 feet AGL
Weather: no significant weather observed at this time

METAR text: FCPP 222100Z 23006KT 8000 FEW011 FEW030CB 27/25 Q1012 RETS NOSIG
Conditions at: FCPP (POINTE-NOIRE , CG) observed 2100 UTC 22 January 2019
Temperature: 27.0°C (81°F)
Dewpoint: 25.0°C (77°F) [RH = 89%]
Pressure (altimeter): 29.88 inches Hg (1012.0 mb)
Winds: from the SW (230 degrees) at 7 MPH (6 knots; 3.1 m/s)
Visibility: 5 miles ( 8 km)
Ceiling: at least 12,000 feet AGL
Clouds: few clouds at 1100 feet AGL
few clouds at 3000 feet AGL
Weather: no significant weather observed at this time

METAR text: FCPP 222000Z 22005KT 8000 -TSRA FEW011 SCT023 FEW030CB 27/26 Q1011 NOSIG
Conditions at: FCPP (POINTE-NOIRE , CG) observed 2000 UTC 22 January 2019
Temperature: 27.0°C (81°F)
Dewpoint: 26.0°C (79°F) [RH = 94%]
Pressure (altimeter): 29.85 inches Hg (1011.0 mb)
Winds: from the SW (220 degrees) at 6 MPH (5 knots; 2.6 m/s)
Visibility: 5 miles ( 8 km)
Ceiling: at least 12,000 feet AGL
Clouds: few clouds at 1100 feet AGL
scattered clouds at 2300 feet AGL
few clouds at 3000 feet AGL
Weather: -TSRA  (light rain associated with thunderstorm(s))

METAR text: FCPP 221900Z 00000KT 8000 -TSRA SCT010 BKN023 FEW030CB 27/26 Q1011 NOSIG
Conditions at: FCPP (POINTE-NOIRE , CG) observed 1900 UTC 22 January 2019
Temperature: 27.0°C (81°F)
Dewpoint: 26.0°C (79°F) [RH = 94%]
Pressure (altimeter): 29.85 inches Hg (1011.0 mb)
Winds: calm
Visibility: 5 miles ( 8 km)
Ceiling: 2300 feet AGL
Clouds: scattered clouds at 1000 feet AGL
broken clouds at 2300 feet AGL
few clouds at 3000 feet AGL
Weather: -TSRA  (light rain associated with thunderstorm(s))

METAR text: FCPP 221800Z 16005KT 8000 -TSRA SCT010 BKN023 FEW030CB 27/25 Q1011 TEMPO 3500 TSRA
Conditions at: FCPP (POINTE-NOIRE , CG) observed 1800 UTC 22 January 2019
Temperature: 27.0°C (81°F)
Dewpoint: 25.0°C (77°F) [RH = 89%]
Pressure (altimeter): 29.85 inches Hg (1011.0 mb)
Winds: from the SSE (160 degrees) at 6 MPH (5 knots; 2.6 m/s)
Visibility: 5 miles ( 8 km)
Ceiling: 2300 feet AGL
Clouds: scattered clouds at 1000 feet AGL
broken clouds at 2300 feet AGL
few clouds at 3000 feet AGL
Weather: -TSRA  (light rain associated with thunderstorm(s))

METAR text: FCPP 221700Z 21006KT 180V250 9999 TS FEW015 BKN023 FEW030CB 29/25 Q1010 NOSIG
Conditions at: FCPP (POINTE-NOIRE , CG) observed 1700 UTC 22 January 2019
Temperature: 29.0°C (84°F)
Dewpoint: 25.0°C (77°F) [RH = 79%]
Pressure (altimeter): 29.82 inches Hg (1010.0 mb)
Winds: from the SSW (210 degrees) at 7 MPH (6 knots; 3.1 m/s)
Visibility: 6 or more miles (10+ km)
Ceiling: 2300 feet AGL
Clouds: few clouds at 1500 feet AGL
broken clouds at 2300 feet AGL
few clouds at 3000 feet AGL
Weather: TS  (thunderstorm)

METAR text: FCPP 221600Z 23010KT 200V260 9999 SCT016 FEW030CB 30/25 Q1009 NOSIG
Conditions at: FCPP (POINTE-NOIRE , CG) observed 1600 UTC 22 January 2019
Temperature: 30.0°C (86°F)
Dewpoint: 25.0°C (77°F) [RH = 75%]
Pressure (altimeter): 29.79 inches Hg (1009.0 mb)
Winds: from the SW (230 degrees) at 12 MPH (10 knots; 5.1 m/s)
Visibility: 6 or more miles (10+ km)
Ceiling: at least 12,000 feet AGL
Clouds: scattered clouds at 1600 feet AGL
few clouds at 3000 feet AGL
Weather: no significant weather observed at this time

METAR text: FCPP 221500Z 25011KT 9999 SCT016 FEW030CB 30/25 Q1009 NOSIG
Conditions at: FCPP (POINTE-NOIRE , CG) observed 1500 UTC 22 January 2019
Temperature: 30.0°C (86°F)
Dewpoint: 25.0°C (77°F) [RH = 75%]
Pressure (altimeter): 29.79 inches Hg (1009.0 mb)
Winds: from the WSW (250 degrees) at 13 MPH (11 knots; 5.7 m/s)
Visibility: 6 or more miles (10+ km)
Ceiling: at least 12,000 feet AGL
Clouds: scattered clouds at 1600 feet AGL
few clouds at 3000 feet AGL
Weather: no significant weather observed at this time

METAR text: FCPP 221400Z 23011KT 9999 SCT016 FEW030CB 30/26 Q1009 NOSIG
Conditions at: FCPP (POINTE-NOIRE , CG) observed 1400 UTC 22 January 2019
Temperature: 30.0°C (86°F)
Dewpoint: 26.0°C (79°F) [RH = 79%]
Pressure (altimeter): 29.79 inches Hg (1009.0 mb)
Winds: from the SW (230 degrees) at 13 MPH (11 knots; 5.7 m/s)
Visibility: 6 or more miles (10+ km)
Ceiling: at least 12,000 feet AGL
Clouds: scattered clouds at 1600 feet AGL
few clouds at 3000 feet AGL
Weather: no significant weather observed at this time

METAR text: FCPP 221300Z 21009KT 9999 FEW016 FEW030CB 30/26 Q1010 NOSIG
Conditions at: FCPP (POINTE-NOIRE , CG) observed 1300 UTC 22 January 2019
Temperature: 30.0°C (86°F)
Dewpoint: 26.0°C (79°F) [RH = 79%]
Pressure (altimeter): 29.82 inches Hg (1010.0 mb)
Winds: from the SSW (210 degrees) at 10 MPH (9 knots; 4.6 m/s)
Visibility: 6 or more miles (10+ km)
Ceiling: at least 12,000 feet AGL
Clouds: few clouds at 1600 feet AGL
few clouds at 3000 feet AGL
Weather: no significant weather observed at this time

METAR text: FCPP 221200Z 23008KT 190V260 9999 FEW017 FEW030CB 30/26 Q1011 NOSIG
Conditions at: FCPP (POINTE-NOIRE , CG) observed 1200 UTC 22 January 2019
Temperature: 30.0°C (86°F)
Dewpoint: 26.0°C (79°F) [RH = 79%]
Pressure (altimeter): 29.85 inches Hg (1011.0 mb)
Winds: from the SW (230 degrees) at 9 MPH (8 knots; 4.1 m/s)
Visibility: 6 or more miles (10+ km)
Ceiling: at least 12,000 feet AGL
Clouds: few clouds at 1700 feet AGL
few clouds at 3000 feet AGL
Weather: no significant weather observed at this time

METAR text: FCPP 221100Z 23006KT 170V280 9999 FEW017 FEW030CB 30/25 Q1012 NOSIG
Conditions at: FCPP (POINTE-NOIRE , CG) observed 1100 UTC 22 January 2019
Temperature: 30.0°C (86°F)
Dewpoint: 25.0°C (77°F) [RH = 75%]
Pressure (altimeter): 29.88 inches Hg (1012.0 mb)
Winds: from the SW (230 degrees) at 7 MPH (6 knots; 3.1 m/s)
Visibility: 6 or more miles (10+ km)
Ceiling: at least 12,000 feet AGL
Clouds: few clouds at 1700 feet AGL
few clouds at 3000 feet AGL
Weather: no significant weather observed at this time

METAR text: FCPP 221000Z 24006KT 200V260 9999 SCT016 FEW030CB 29/25 Q1013 NOSIG
Conditions at: FCPP (POINTE-NOIRE , CG) observed 1000 UTC 22 January 2019
Temperature: 29.0°C (84°F)
Dewpoint: 25.0°C (77°F) [RH = 79%]
Pressure (altimeter): 29.91 inches Hg (1013.0 mb)
Winds: from the WSW (240 degrees) at 7 MPH (6 knots; 3.1 m/s)
Visibility: 6 or more miles (10+ km)
Ceiling: at least 12,000 feet AGL
Clouds: scattered clouds at 1600 feet AGL
few clouds at 3000 feet AGL
Weather: no significant weather observed at this time

METAR text: FCPP 220900Z VRB02KT 9999 SCT015 SCT024 FEW030CB 30/25 Q1013 NOSIG
Conditions at: FCPP (POINTE-NOIRE , CG) observed 0900 UTC 22 January 2019
Temperature: 30.0°C (86°F)
Dewpoint: 25.0°C (77°F) [RH = 75%]
Pressure (altimeter): 29.91 inches Hg (1013.0 mb)
Winds: variable direction winds at 2 MPH (2 knots; 1.0 m/s)
Visibility: 6 or more miles (10+ km)
Ceiling: at least 12,000 feet AGL
Clouds: scattered clouds at 1500 feet AGL
scattered clouds at 2400 feet AGL
few clouds at 3000 feet AGL
Weather: no significant weather observed at this time

METAR text: FCPP 220800Z VRB02KT 9999 SCT013 FEW030CB 30/25 Q1013 NOSIG
Conditions at: FCPP (POINTE-NOIRE , CG) observed 0800 UTC 22 January 2019
Temperature: 30.0°C (86°F)
Dewpoint: 25.0°C (77°F) [RH = 75%]
Pressure (altimeter): 29.91 inches Hg (1013.0 mb)
Winds: variable direction winds at 2 MPH (2 knots; 1.0 m/s)
Visibility: 6 or more miles (10+ km)
Ceiling: at least 12,000 feet AGL
Clouds: scattered clouds at 1300 feet AGL
few clouds at 3000 feet AGL
Weather: no significant weather observed at this time

Forecast for: FCPP (POINTE-NOIRE , CG)
Text: TAF FCPP 231700Z 2318/2418 20006KT 9999 SCT013 FEW030CB
Forecast period: 1800 to 2300 UTC 23 January 2019
Forecast type: FROM: standard forecast or significant change
Winds: from the SSW (200 degrees) at 7 MPH (6 knots; 3.1 m/s)
Visibility: 6 or more miles 10+ km)
Ceiling: at least 12,000 feet AGL
Clouds: scattered clouds at 1300 feet AGL
few clouds at 3000 feet AGL
Weather: no significant weather forecast for this period
Text: PROB30
Forecast period: 1900 to 2200 UTC 23 January 2019
Forecast type: TEMPORARY: The following changes expected for less than half the time period
Visibility: missing
Ceiling: unknown
Clouds: missing
Weather: TS  (thunderstorm)
Text: TEMPO 2319/2322 TS
Forecast period: 2300 UTC 23 January 2019 to 1800 UTC 24 January 2019
Forecast type: BECOMING: Conditions expected to become as follows by 0100 UTC 24 January 2019
Winds: from the SSW (200 degrees) at 7 MPH (6 knots; 3.1 m/s)
Visibility: 6 or more miles 10+ km)
Ceiling: at least 12,000 feet AGL
Clouds: few clouds at 1000 feet AGL
Weather: no significant weather forecast for this period